Arco, ID

4:27 PM MDT on August 02, 2015 (GMT -0600)
ARLFRD | | Change Station
CLOSE
Current Station
Personal Weather Station
Location: Atomic City, ID
Elevation: 4950 ft
Nearby Weather Stations

Elev 4950 ft 43.53 °N, 112.95 °W | Updated 27 minutes ago

Partly Cloudy
Partly Cloudy
95 °F
Feels Like 90 °F
N
11
Wind Variable Wind from East
Gusts 17.0 mph

Today
High -- | Low -- °F
--% Chance of Precip.
Yesterday
High -- | Low -- °F
Precip. -- in
6:23 AM 8:54 PM
Waning Gibbous, 91% visible
Pressure 30.05 in
Visibility 10.0 miles
Clouds Scattered Clouds 13000 ft
Heat Index 90 °F
Dew Point 26 °F
Humidity 9%
Rainfall in
Snow Depth Not available.
UV 7 out of 12
Pollen 6.20 out of 12
Air Quality Not available.
Flu Activity Not available.
METAR KSUN 022147Z 12010KT 10SM SCT130 32/03 A3005

More Conditions Fewer Conditions

Pressure 30.05 in
Visibility 10.0 miles
Clouds Scattered Clouds 13000 ft
Heat Index 90 °F
Dew Point 26 °F
Humidity 9%
Rainfall in
Snow Depth Not available.
UV 7 out of 12
Pollen 6.20 out of 12
Air Quality Not available.
Flu Activity Not available.
METAR KSUN 022147Z 12010KT 10SM SCT130 32/03 A3005

More Conditions Fewer Conditions

10-Day Weather Forecast

×

Almanac

Astronomy

Aug. 02, 2015 Rise Set
Actual Time
Civil Twilight
Nautical Twilight
Astronomical Twilight
Moon
Length of Visible Light
Length of Day
Tomorrow will be .
, % of the Moon is Illuminated

Today's Extremes

State Highs State Lows

Community

WunderPhotos

Upload Photos

1,843,400 photos uploaded!

WunderBlogs® & News

Nearby

Air Quality

  Air Quality AQ Index Pollutant
Not available.

Snow Depth

Station Depth Elevation

Earthquake Activity

City Distance Mag. Time & Date
Minimum magnitude displayed is 2.5.

Coastal Water Temperatures

Place Temperature

Stations

Nearby Weather Stations

Station Location Temp. Windchill Dew Point Humidity Wind Precip. Elev Updated Type